Time;durP1;ratioP1;P1;durP2;ratioP2;P2;SDS_P1;SDS_P2;PMS_P1;PMS_P2;Temp;Humidity;BMP_temperature;BMP_pressure;BME280_temperature;BME280_humidity;BME280_pressure;Samples;Min_cycle;Max_cycle;Signal;HPM_P1;HPM_P2
2023/06/04 00:00:38;;;;;;;0.10;0.10;;;8.00;99.90;;;;;;5128570;27;20079;-74
2023/06/04 00:03:03;;;;;;;0.00;0.00;;;7.90;99.90;;;;;;5127942;27;20050;-74
2023/06/04 00:05:29;;;;;;;0.00;0.00;;;8.00;99.90;;;;;;5128012;27;20051;-75
2023/06/04 00:07:54;;;;;;;0.20;0.20;;;8.00;99.90;;;;;;5128153;27;20047;-74
2023/06/04 00:10:20;;;;;;;0.03;0.03;;;7.80;99.90;;;;;;5127571;27;20118;-75
2023/06/04 00:12:46;;;;;;;0.00;0.00;;;7.80;99.90;;;;;;5127681;27;20055;-75
2023/06/04 00:15:13;;;;;;;0.00;0.00;;;7.70;99.90;;;;;;5127516;27;20035;-74
2023/06/04 00:17:39;;;;;;;0.13;0.10;;;7.60;99.90;;;;;;5127141;27;20110;-73
2023/06/04 00:20:05;;;;;;;0.00;0.00;;;7.50;99.90;;;;;;5127752;27;20540;-74
2023/06/04 00:22:31;;;;;;;3.08;0.85;;;7.50;99.90;;;;;;5127545;27;20043;-74
2023/06/04 00:24:56;;;;;;;0.22;0.22;;;7.70;99.90;;;;;;5126906;27;20044;-74
2023/06/04 00:27:22;;;;;;;0.00;0.00;;;7.70;99.90;;;;;;5126770;27;20053;-74
2023/06/04 00:29:47;;;;;;;0.03;0.03;;;7.60;99.90;;;;;;5127073;27;20408;-74
2023/06/04 00:32:13;;;;;;;0.55;0.40;;;7.50;99.90;;;;;;5127463;27;20039;-74
2023/06/04 00:34:38;;;;;;;0.00;0.00;;;7.50;99.90;;;;;;5126738;27;20425;-74
2023/06/04 00:37:04;;;;;;;0.00;0.00;;;7.40;99.90;;;;;;5127206;27;20049;-74
2023/06/04 00:39:30;;;;;;;3.13;1.08;;;7.40;99.90;;;;;;5127309;27;20192;-74
2023/06/04 00:41:56;;;;;;;0.22;0.22;;;7.50;99.90;;;;;;5127337;27;21025;-74
2023/06/04 00:44:24;;;;;;;0.10;0.10;;;7.60;99.90;;;;;;5127118;27;20043;-73
2023/06/04 00:46:51;;;;;;;0.00;0.00;;;7.50;99.90;;;;;;5127114;27;20101;-74
2023/06/04 00:49:16;;;;;;;0.00;0.00;;;7.40;99.90;;;;;;5127328;27;20050;-74
2023/06/04 00:51:42;;;;;;;0.00;0.00;;;7.90;99.90;;;;;;5127214;27;20405;-74
2023/06/04 00:54:08;;;;;;;0.15;0.15;;;7.40;99.90;;;;;;5127114;27;20043;-74
2023/06/04 00:56:37;;;;;;;0.00;0.00;;;7.40;99.90;;;;;;5127010;27;20043;-74
2023/06/04 00:59:04;;;;;;;0.00;0.00;;;7.30;99.90;;;;;;5108747;27;20687;-74
2023/06/04 01:01:51;;;;;;;0.30;0.30;;;7.40;99.90;;;;;;5126748;27;20501;-74
2023/06/04 01:04:20;;;;;;;;;;;7.50;99.90;;;;;;5126832;27;20528;-75
2023/06/04 01:06:51;;;;;;;0.00;0.00;;;7.50;99.90;;;;;;5126499;27;20010;-74
2023/06/04 01:09:18;;;;;;;0.00;0.00;;;7.40;99.90;;;;;;5126771;27;20054;-74
2023/06/04 01:11:43;;;;;;;0.00;0.00;;;7.40;99.90;;;;;;5126548;27;20051;-74
2023/06/04 01:14:09;;;;;;;0.00;0.00;;;7.20;99.90;;;;;;5126580;27;20043;-74
2023/06/04 01:17:01;;;;;;;0.00;0.00;;;7.10;99.90;;;;;;5126550;27;20081;-74
2023/06/04 01:19:54;;;;;;;0.32;0.25;;;7.00;99.90;;;;;;5126342;27;20143;-74
2023/06/04 01:22:41;;;;;;;0.10;0.10;;;6.80;99.90;;;;;;5126673;27;20401;-74
2023/06/04 01:25:18;;;;;;;0.00;0.00;;;6.80;99.90;;;;;;5126635;27;20047;-74
2023/06/04 01:27:48;;;;;;;0.20;0.20;;;6.80;99.90;;;;;;5126590;27;20054;-74
2023/06/04 01:30:15;;;;;;;1.33;1.10;;;6.80;99.90;;;;;;5126444;27;20405;-76
2023/06/04 01:32:41;;;;;;;0.00;0.00;;;6.90;99.90;;;;;;5125898;27;20051;-74
2023/06/04 01:35:11;;;;;;;0.00;0.00;;;6.80;99.90;;;;;;5126594;27;20053;-74
2023/06/04 01:37:37;;;;;;;0.00;0.00;;;6.80;99.90;;;;;;5107687;27;20042;-74
2023/06/04 01:40:03;;;;;;;0.00;0.00;;;6.80;99.90;;;;;;5125833;27;20039;-74
2023/06/04 01:42:28;;;;;;;0.10;0.10;;;6.90;99.90;;;;;;5107903;27;20047;-74
2023/06/04 01:44:54;;;;;;;0.00;0.00;;;6.80;99.90;;;;;;5125159;27;20043;-74
2023/06/04 01:47:20;;;;;;;0.00;0.00;;;6.80;99.90;;;;;;5125713;27;20047;-74
2023/06/04 01:49:46;;;;;;;0.00;0.00;;;6.80;99.90;;;;;;5126062;27;20343;-73
2023/06/04 01:52:11;;;;;;;0.00;0.00;;;6.70;99.90;;;;;;5125545;27;20122;-74
2023/06/04 01:54:38;;;;;;;0.00;0.00;;;6.60;99.90;;;;;;5125410;27;20087;-74
2023/06/04 01:57:05;;;;;;;0.32;0.25;;;6.50;99.90;;;;;;5125633;27;20575;-74
2023/06/04 01:59:31;;;;;;;0.10;0.10;;;6.40;99.90;;;;;;5125302;27;20188;-74
2023/06/04 02:01:57;;;;;;;0.00;0.00;;;6.40;99.90;;;;;;5125575;27;20078;-74
2023/06/04 02:04:23;;;;;;;0.00;0.00;;;6.50;99.90;;;;;;5125649;27;20493;-74
2023/06/04 02:06:50;;;;;;;0.00;0.00;;;6.50;99.90;;;;;;5125353;27;20494;-73
2023/06/04 02:09:15;;;;;;;0.00;0.00;;;6.50;99.90;;;;;;5125482;27;20472;-74
2023/06/04 02:11:41;;;;;;;0.32;0.30;;;6.50;99.90;;;;;;5125896;27;20107;-74
2023/06/04 02:14:07;;;;;;;0.63;0.52;;;6.60;99.90;;;;;;5125823;27;20512;-74
2023/06/04 02:16:32;;;;;;;0.00;0.00;;;6.70;99.90;;;;;;5125060;27;20070;-74
2023/06/04 02:18:59;;;;;;;0.20;0.20;;;6.70;99.90;;;;;;5125362;27;20043;-74
2023/06/04 02:21:24;;;;;;;1.55;0.80;;;6.70;99.90;;;;;;5125360;27;20096;-74
2023/06/04 02:23:50;;;;;;;0.00;0.00;;;6.60;99.90;;;;;;5125115;27;20043;-74
2023/06/04 02:26:16;;;;;;;0.00;0.00;;;6.50;99.90;;;;;;5106730;27;20046;-74
2023/06/04 02:28:41;;;;;;;0.00;0.00;;;6.40;99.90;;;;;;5124378;27;20050;-74
2023/06/04 02:31:07;;;;;;;0.00;0.00;;;6.40;99.90;;;;;;5125124;27;20035;-74
2023/06/04 02:33:33;;;;;;;0.00;0.00;;;6.40;99.90;;;;;;5125081;27;20045;-74
2023/06/04 02:35:58;;;;;;;0.80;0.73;;;6.40;99.90;;;;;;5125112;27;20467;-74
2023/06/04 02:38:24;;;;;;;3.03;2.10;;;6.40;99.90;;;;;;5124401;27;20195;-75
2023/06/04 02:40:49;;;;;;;0.70;0.30;;;6.60;99.90;;;;;;5125083;27;20043;-74
2023/06/04 02:43:15;;;;;;;0.00;0.00;;;6.70;99.90;;;;;;5124892;27;20450;-74
2023/06/04 02:45:41;;;;;;;0.00;0.00;;;6.60;99.90;;;;;;5124894;27;20058;-75
2023/06/04 02:48:06;;;;;;;0.00;0.00;;;6.50;99.90;;;;;;5125034;27;20101;-74
2023/06/04 02:50:33;;;;;;;0.43;0.30;;;6.40;99.90;;;;;;5106722;27;20042;-74
2023/06/04 02:52:58;;;;;;;0.00;0.00;;;6.40;99.90;;;;;;5125101;27;20077;-74
2023/06/04 02:55:24;;;;;;;0.00;0.00;;;6.30;99.90;;;;;;5124761;27;20047;-74
2023/06/04 02:57:51;;;;;;;0.00;0.00;;;6.30;99.90;;;;;;5124936;27;20078;-74
2023/06/04 03:00:17;;;;;;;0.00;0.00;;;6.20;99.90;;;;;;5124777;27;20456;-74
2023/06/04 03:02:47;;;;;;;0.10;0.10;;;6.10;99.90;;;;;;5124819;27;20043;-74
2023/06/04 03:05:14;;;;;;;0.00;0.00;;;6.00;99.90;;;;;;5106056;27;20523;-74
2023/06/04 03:07:43;;;;;;;0.00;0.00;;;6.10;99.90;;;;;;5124714;27;20108;-74
2023/06/04 03:10:09;;;;;;;0.00;0.00;;;6.20;99.90;;;;;;5124604;27;20043;-74
2023/06/04 03:12:35;;;;;;;1.40;0.73;;;6.20;99.90;;;;;;5124125;28;20409;-74
2023/06/04 03:15:02;;;;;;;1.23;0.47;;;6.20;99.90;;;;;;5124596;28;20055;-74
2023/06/04 03:17:28;;;;;;;0.00;0.00;;;6.30;99.90;;;;;;5124270;28;20085;-74
2023/06/04 03:19:53;;;;;;;0.00;0.00;;;6.40;99.90;;;;;;5124402;28;20490;-74
2023/06/04 03:22:19;;;;;;;0.10;0.10;;;6.50;99.90;;;;;;5124356;28;20478;-74
2023/06/04 03:24:45;;;;;;;0.47;0.47;;;6.60;99.90;;;;;;5124087;28;20039;-75
2023/06/04 03:27:10;;;;;;;0.10;0.10;;;6.60;99.90;;;;;;5124231;28;20043;-74
2023/06/04 03:29:36;;;;;;;0.00;0.00;;;6.70;99.90;;;;;;5123957;28;20043;-74
2023/06/04 03:32:03;;;;;;;0.00;0.00;;;6.70;99.90;;;;;;5124434;28;20039;-74
2023/06/04 03:34:31;;;;;;;0.00;0.00;;;6.70;99.90;;;;;;5124384;28;20039;-74
2023/06/04 03:36:57;;;;;;;0.05;0.05;;;6.80;99.90;;;;;;5124133;28;20516;-75
2023/06/04 03:39:23;;;;;;;0.30;0.30;;;6.80;99.90;;;;;;5124351;28;20656;-74
2023/06/04 03:41:49;;;;;;;0.05;0.05;;;6.90;99.90;;;;;;5106541;28;20039;-74
2023/06/04 03:44:16;;;;;;;0.00;0.00;;;6.80;99.90;;;;;;5124239;28;20043;-74
2023/06/04 03:46:42;;;;;;;0.20;0.20;;;6.80;99.90;;;;;;5105720;28;20047;-75
2023/06/04 03:49:10;;;;;;;0.15;0.13;;;6.80;99.90;;;;;;5124352;28;20051;-73
2023/06/04 03:51:39;;;;;;;0.00;0.00;;;6.80;99.90;;;;;;5124037;28;20050;-75
2023/06/04 03:54:05;;;;;;;0.00;0.00;;;6.80;99.90;;;;;;5124104;28;20044;-74
2023/06/04 03:56:31;;;;;;;1.55;0.57;;;6.90;99.90;;;;;;5123990;28;20035;-73
2023/06/04 03:58:57;;;;;;;0.00;0.00;;;7.00;99.90;;;;;;5123859;28;20176;-74
2023/06/04 04:01:23;;;;;;;0.00;0.00;;;7.20;99.90;;;;;;5124070;27;20677;-74
2023/06/04 04:03:50;;;;;;;0.73;0.20;;;7.30;99.90;;;;;;5105039;28;20093;-73
2023/06/04 04:06:16;;;;;;;0.00;0.00;;;7.40;99.90;;;;;;5123676;28;20115;-73
2023/06/04 04:08:43;;;;;;;0.00;0.00;;;7.50;99.90;;;;;;5124138;27;20039;-73
2023/06/04 04:11:14;;;;;;;0.00;0.00;;;7.70;99.90;;;;;;5127809;27;20062;-74
2023/06/04 04:13:40;;;;;;;0.00;0.00;;;7.80;99.90;;;;;;5128002;27;20047;-74
2023/06/04 04:16:06;;;;;;;0.55;0.55;;;7.90;99.90;;;;;;5127741;27;20051;-73
2023/06/04 04:18:35;;;;;;;0.95;0.55;;;8.20;99.90;;;;;;5128072;27;20039;-74
2023/06/04 04:21:02;;;;;;;0.00;0.00;;;8.30;99.90;;;;;;5127584;27;20078;-74
2023/06/04 04:23:29;;;;;;;0.70;0.70;;;8.50;99.90;;;;;;5127213;27;20046;-73
2023/06/04 04:25:56;;;;;;;0.00;0.00;;;8.70;99.90;;;;;;5127854;27;20061;-74
2023/06/04 04:28:22;;;;;;;0.80;0.65;;;8.90;99.90;;;;;;5127815;27;20062;-73
2023/06/04 04:30:48;;;;;;;0.13;0.10;;;9.00;99.90;;;;;;5127281;27;20050;-74
2023/06/04 04:33:17;;;;;;;0.38;0.32;;;9.30;99.90;;;;;;5127591;27;20058;-74
2023/06/04 04:35:44;;;;;;;0.00;0.00;;;9.40;99.90;;;;;;5127387;27;20039;-75
2023/06/04 04:38:10;;;;;;;1.27;0.73;;;9.50;99.90;;;;;;5127505;27;20054;-74
2023/06/04 04:40:36;;;;;;;0.93;0.70;;;9.60;99.90;;;;;;5127048;27;20493;-74
2023/06/04 04:43:02;;;;;;;7.03;0.38;;;9.90;99.90;;;;;;5127468;27;20355;-75
2023/06/04 04:45:28;;;;;;;1.75;0.52;;;10.10;99.90;;;;;;5127161;27;20051;-75
2023/06/04 04:47:53;;;;;;;0.10;0.10;;;10.40;99.90;;;;;;5127122;27;20519;-75
2023/06/04 04:50:19;;;;;;;0.08;0.05;;;10.80;99.90;;;;;;5127114;27;20458;-75
2023/06/04 04:52:45;;;;;;;0.03;0.03;;;11.30;99.90;;;;;;5127014;27;20042;-74
2023/06/04 04:55:11;;;;;;;0.08;0.08;;;11.80;99.90;;;;;;5126791;27;20062;-75
2023/06/04 04:57:38;;;;;;;0.05;0.05;;;12.20;99.90;;;;;;5126664;27;20047;-74
2023/06/04 05:00:09;;;;;;;0.10;0.10;;;12.50;99.90;;;;;;5126726;27;20043;-74
2023/06/04 05:02:35;;;;;;;0.35;0.20;;;12.70;99.90;;;;;;5127195;27;20043;-75
2023/06/04 05:05:01;;;;;;;0.10;0.10;;;13.00;99.90;;;;;;5126214;27;20442;-75
2023/06/04 05:07:27;;;;;;;0.22;0.22;;;13.30;99.90;;;;;;5127266;27;20043;-76
2023/06/04 05:09:53;;;;;;;1.13;0.52;;;13.50;99.90;;;;;;5126681;27;20065;-75
2023/06/04 05:12:18;;;;;;;0.00;0.00;;;13.70;99.90;;;;;;5126361;27;20058;-75
2023/06/04 05:14:45;;;;;;;1.85;1.00;;;14.00;99.90;;;;;;5126696;27;20281;-75
2023/06/04 05:17:12;;;;;;;0.13;0.10;;;14.30;99.90;;;;;;5127276;27;20043;-75
2023/06/04 05:19:38;;;;;;;0.00;0.00;;;14.50;99.90;;;;;;5126467;27;20536;-75
2023/06/04 05:22:05;;;;;;;0.03;0.03;;;14.90;85.40;;;;;;5126864;27;20047;-75
2023/06/04 05:24:32;;;;;;;0.22;0.17;;;15.30;1.00;;;;;;5125053;27;20119;-75
2023/06/04 05:26:58;;;;;;;0.00;0.00;;;15.40;99.90;;;;;;5124815;27;20548;-75
2023/06/04 05:29:23;;;;;;;0.08;0.08;;;15.80;99.90;;;;;;5124687;27;20143;-75
2023/06/04 05:31:49;;;;;;;0.32;0.32;;;16.30;99.90;;;;;;5124523;27;20521;-75
2023/06/04 05:34:16;;;;;;;0.20;0.15;;;16.50;1.00;;;;;;5124339;27;20046;-75
2023/06/04 05:36:44;;;;;;;0.00;0.00;;;17.10;99.90;;;;;;5124426;27;20047;-75
2023/06/04 05:39:10;;;;;;;0.05;0.05;;;17.60;99.90;;;;;;5124256;27;20122;-75
2023/06/04 05:41:36;;;;;;;0.75;0.63;;;17.60;99.90;;;;;;5124125;27;20149;-75
2023/06/04 05:44:02;;;;;;;9.15;0.47;;;17.80;99.90;;;;;;5124269;27;20061;-75
2023/06/04 05:46:28;;;;;;;1.85;0.85;;;18.30;65.80;;;;;;5105955;27;20043;-75
2023/06/04 05:48:54;;;;;;;0.00;0.00;;;18.40;99.90;;;;;;5124189;27;20508;-75
2023/06/04 05:51:20;;;;;;;0.45;0.45;;;18.70;1.00;;;;;;5124479;27;20043;-75
2023/06/04 05:53:46;;;;;;;0.00;0.00;;;19.10;1.00;;;;;;5105614;27;20535;-75
2023/06/04 05:56:13;;;;;;;0.00;0.00;;;19.30;99.90;;;;;;5124165;27;20405;-75
2023/06/04 05:58:38;;;;;;;0.80;0.35;;;19.30;99.90;;;;;;5124264;27;20168;-75
2023/06/04 06:01:04;;;;;;;0.40;0.35;;;19.00;99.90;;;;;;5124089;27;20169;-75
2023/06/04 06:03:30;;;;;;;0.57;0.45;;;19.20;99.90;;;;;;5124469;27;20470;-75
2023/06/04 06:05:57;;;;;;;0.52;0.47;;;19.30;99.90;;;;;;5124176;27;20053;-75
2023/06/04 06:08:22;;;;;;;1.13;1.00;;;19.60;99.90;;;;;;5124059;27;20043;-75
2023/06/04 06:10:48;;;;;;;0.45;0.45;;;19.60;99.90;;;;;;5123614;27;21144;-75
2023/06/04 06:13:14;;;;;;;9.38;1.30;;;19.50;99.90;;;;;;5123553;27;20051;-75
2023/06/04 06:15:39;;;;;;;0.25;0.25;;;19.60;60.30;;;;;;5123497;27;20077;-75
2023/06/04 06:18:05;;;;;;;5.45;1.38;;;19.50;97.90;;;;;;5123316;27;20398;-75
2023/06/04 06:20:32;;;;;;;0.40;0.20;;;20.00;99.90;;;;;;5123479;27;20055;-75
2023/06/04 06:23:06;;;;;;;0.25;0.25;;;20.00;1.00;;;;;;5123640;27;20054;-75
2023/06/04 06:25:31;;;;;;;0.10;0.10;;;20.30;5.00;;;;;;5123210;27;20144;-75
2023/06/04 06:27:57;;;;;;;0.20;0.20;;;20.40;1.50;;;;;;5123576;27;20054;-75
2023/06/04 06:30:23;;;;;;;0.00;0.00;;;20.70;1.00;;;;;;5123028;27;20054;-75
2023/06/04 06:32:49;;;;;;;0.00;0.00;;;20.60;1.00;;;;;;5122941;27;20398;-75
2023/06/04 06:35:15;;;;;;;0.00;0.00;;;20.60;1.00;;;;;;5123170;27;20050;-75
2023/06/04 06:37:43;;;;;;;0.20;0.20;;;21.10;1.00;;;;;;5123326;27;20450;-75
2023/06/04 06:40:11;;;;;;;2.13;0.85;;;21.20;1.00;;;;;;5121154;27;20591;-75
2023/06/04 06:42:37;;;;;;;0.55;0.55;;;21.70;1.00;;;;;;5120477;27;20074;-75
2023/06/04 06:45:03;;;;;;;0.47;0.47;;;21.90;1.00;;;;;;5120061;27;20043;-75
2023/06/04 06:47:29;;;;;;;1.35;0.45;;;21.60;1.00;;;;;;5119991;27;20039;-75
2023/06/04 06:49:54;;;;;;;0.00;0.00;;;21.60;1.00;;;;;;5120818;27;20489;-75
2023/06/04 06:52:20;;;;;;;0.32;0.20;;;22.10;1.00;;;;;;5120315;27;20517;-75
2023/06/04 06:54:46;;;;;;;0.20;0.10;;;22.60;1.00;;;;;;5120447;27;20054;-75
2023/06/04 06:57:13;;;;;;;0.65;0.55;;;22.10;1.00;;;;;;5120402;27;20047;-75
2023/06/04 06:59:38;;;;;;;0.22;0.17;;;22.40;1.00;;;;;;5120030;27;20047;-75
2023/06/04 07:02:05;;;;;;;0.47;0.32;;;22.70;99.90;;;;;;5118545;27;20050;-75
2023/06/04 07:04:30;;;;;;;1.67;1.13;;;22.40;99.90;;;;;;5118971;27;20042;-75
2023/06/04 07:06:56;;;;;;;0.57;0.30;;;22.80;99.90;;;;;;5120578;27;20043;-75
2023/06/04 07:09:22;;;;;;;0.17;0.17;;;23.70;1.00;;;;;;5120138;27;20602;-75
2023/06/04 07:11:47;;;;;;;0.03;0.03;;;24.20;99.90;;;;;;5120323;27;20176;-75
2023/06/04 07:14:14;;;;;;;1.05;0.22;;;24.10;99.90;;;;;;5120423;28;20830;-75
2023/06/04 07:16:39;;;;;;;0.10;0.10;;;24.30;99.90;;;;;;5120728;28;20046;-74
2023/06/04 07:19:05;;;;;;;0.32;0.20;;;24.30;99.90;;;;;;5120053;28;20043;-75
2023/06/04 07:21:31;;;;;;;0.10;0.10;;;24.20;99.90;;;;;;5120003;28;20118;-75
2023/06/04 07:23:56;;;;;;;2.67;1.13;;;23.80;99.90;;;;;;5119794;28;20058;-75
2023/06/04 07:26:22;;;;;;;0.00;0.00;;;23.70;99.90;;;;;;5121590;27;20047;-75
2023/06/04 07:28:47;;;;;;;2.50;0.25;;;23.80;99.90;;;;;;5131604;27;20528;-74
2023/06/04 07:31:17;;;;;;;0.45;0.45;;;24.60;99.90;;;;;;5119149;28;20054;-75
2023/06/04 07:33:43;;;;;;;0.13;0.10;;;24.60;99.90;;;;;;5120678;28;20118;-75
2023/06/04 07:36:12;;;;;;;0.22;0.22;;;24.80;99.90;;;;;;5120794;28;20131;-75
2023/06/04 07:38:37;;;;;;;0.10;0.10;;;24.20;99.90;;;;;;5122986;28;20049;-74
2023/06/04 07:41:03;;;;;;;4.18;0.75;;;24.50;99.90;;;;;;5122491;28;20443;-75
2023/06/04 07:43:28;;;;;;;0.00;0.00;;;24.30;99.90;;;;;;5122796;27;20496;-75
2023/06/04 07:45:54;;;;;;;0.30;0.22;;;24.70;99.90;;;;;;5127167;27;20058;-75
2023/06/04 07:48:20;;;;;;;0.35;0.25;;;25.00;99.90;;;;;;5126602;27;20047;-75
2023/06/04 07:50:45;;;;;;;2.35;0.32;;;24.80;99.90;;;;;;5127177;27;20039;-75
2023/06/04 07:53:11;;;;;;;0.03;0.03;;;24.80;99.90;;;;;;5126809;27;20047;-75
2023/06/04 07:55:37;;;;;;;0.10;0.10;;;25.10;99.90;;;;;;5126143;27;20039;-75
2023/06/04 07:58:02;;;;;;;0.05;0.00;;;25.30;99.90;;;;;;5126481;27;20450;-75
2023/06/04 08:00:28;;;;;;;0.05;0.05;;;25.00;99.90;;;;;;5126695;27;20504;-75
2023/06/04 08:02:53;;;;;;;0.55;0.52;;;25.30;99.90;;;;;;5147273;27;20060;-75
2023/06/04 08:05:19;;;;;;;0.00;0.00;;;25.20;99.90;;;;;;5146694;27;20074;-75
2023/06/04 08:07:47;;;;;;;0.13;0.10;;;25.30;99.90;;;;;;5147244;27;20047;-74
2023/06/04 08:10:12;;;;;;;0.17;0.13;;;25.30;99.90;;;;;;5145789;27;20416;-74
2023/06/04 08:12:38;;;;;;;0.00;0.00;;;25.50;99.90;;;;;;5143957;27;20054;-75
2023/06/04 08:15:05;;;;;;;0.20;0.10;;;26.20;99.90;;;;;;5144532;27;20512;-74
2023/06/04 08:17:31;;;;;;;0.00;0.00;;;26.10;99.90;;;;;;5145061;27;20042;-75
2023/06/04 08:19:57;;;;;;;1.27;0.80;;;26.10;99.90;;;;;;5144605;27;20479;-74
2023/06/04 08:22:22;;;;;;;0.00;0.00;;;25.80;99.90;;;;;;5144669;27;20047;-74
2023/06/04 08:24:48;;;;;;;0.63;0.45;;;26.10;99.90;;;;;;5144768;27;20034;-74
2023/06/04 08:27:13;;;;;;;0.00;0.00;;;26.20;99.90;;;;;;5146506;27;20046;-74
2023/06/04 08:29:40;;;;;;;0.00;0.00;;;25.90;99.90;;;;;;5146632;27;20039;-74
2023/06/04 08:32:07;;;;;;;0.32;0.22;;;26.40;99.90;;;;;;5146561;27;20051;-74
2023/06/04 08:34:33;;;;;;;1.08;0.70;;;26.50;99.90;;;;;;5146630;27;20054;-74
2023/06/04 08:36:58;;;;;;;0.82;0.40;;;26.40;99.90;;;;;;5146222;27;20091;-74
2023/06/04 08:39:24;;;;;;;0.00;0.00;;;26.20;99.90;;;;;;5146021;27;20034;-74
2023/06/04 08:41:54;;;;;;;0.00;0.00;;;26.60;99.90;;;;;;5145982;27;20060;-74
2023/06/04 08:44:20;;;;;;;0.15;0.10;;;26.50;99.90;;;;;;5146266;27;20043;-74
2023/06/04 08:46:50;;;;;;;0.20;0.20;;;26.60;99.90;;;;;;5135285;27;20190;-74
2023/06/04 08:49:17;;;;;;;0.10;0.10;;;27.00;99.90;;;;;;5125500;27;20047;-74
2023/06/04 08:51:43;;;;;;;0.98;0.43;;;26.80;99.90;;;;;;5125642;27;20050;-74
2023/06/04 08:54:09;;;;;;;0.25;0.25;;;26.70;99.90;;;;;;5125394;27;20537;-74
2023/06/04 08:56:35;;;;;;;0.47;0.40;;;27.00;99.90;;;;;;5125006;27;20547;-74
2023/06/04 08:59:03;;;;;;;22.15;0.95;;;27.10;99.90;;;;;;5125407;27;20047;-74
2023/06/04 09:01:31;;;;;;;0.00;0.00;;;26.80;99.90;;;;;;5131653;27;20038;-74
2023/06/04 09:03:57;;;;;;;0.52;0.35;;;26.90;99.90;;;;;;5145892;27;20113;-74
2023/06/04 09:06:25;;;;;;;0.00;0.00;;;26.70;99.90;;;;;;5137578;27;20617;-74
2023/06/04 09:08:52;;;;;;;0.10;0.10;;;26.70;99.90;;;;;;5125124;27;20043;-74
2023/06/04 09:11:21;;;;;;;0.10;0.10;;;27.20;99.90;;;;;;5125043;27;20055;-74
2023/06/04 09:13:47;;;;;;;0.82;0.45;;;27.00;99.90;;;;;;5125265;27;20184;-74
2023/06/04 09:16:13;;;;;;;0.00;0.00;;;26.70;99.90;;;;;;5138174;27;20042;-74
2023/06/04 09:18:39;;;;;;;0.28;0.20;;;26.90;99.90;;;;;;5128920;27;20043;-74
2023/06/04 09:21:07;;;;;;;0.10;0.10;;;26.60;99.90;;;;;;5126558;27;20050;-74
2023/06/04 09:23:51;;;;;;;0.10;0.10;;;26.40;99.90;;;;;;5145520;27;20110;-74
2023/06/04 09:26:16;;;;;;;0.10;0.00;;;26.80;99.90;;;;;;5145794;27;20218;-74
2023/06/04 09:28:44;;;;;;;0.45;0.15;;;27.20;99.90;;;;;;5145329;27;20125;-74
2023/06/04 09:31:14;;;;;;;0.25;0.10;;;27.40;99.90;;;;;;5133097;27;20075;-74
2023/06/04 09:33:49;;;;;;;0.45;0.43;;;27.40;99.90;;;;;;5124505;27;20047;-74
2023/06/04 09:36:15;;;;;;;0.75;0.32;;;27.50;99.90;;;;;;5124372;27;20138;-74
2023/06/04 09:38:41;;;;;;;0.00;0.00;;;27.60;99.90;;;;;;5128361;27;20051;-74
2023/06/04 09:41:14;;;;;;;0.00;0.00;;;28.10;99.90;;;;;;5143744;27;20045;-74
2023/06/04 09:43:40;;;;;;;0.70;0.45;;;28.00;99.90;;;;;;5144949;27;20060;-74
2023/06/04 09:46:14;;;;;;;0.95;0.30;;;27.90;99.90;;;;;;5145051;27;20042;-74
2023/06/04 09:48:40;;;;;;;0.10;0.10;;;27.40;99.90;;;;;;5131139;27;20043;-74
2023/06/04 09:51:10;;;;;;;0.95;0.40;;;27.40;99.90;;;;;;5123877;27;20095;-74
2023/06/04 09:53:37;;;;;;;0.25;0.10;;;27.20;99.90;;;;;;5105545;27;20114;-74
2023/06/04 09:56:03;;;;;;;1.52;0.45;;;26.70;99.90;;;;;;5124026;27;20039;-74
2023/06/04 09:58:30;;;;;;;0.00;0.00;;;26.60;99.90;;;;;;5123941;27;20395;-74
2023/06/04 10:00:57;;;;;;;1.83;0.47;;;26.50;99.90;;;;;;5123925;27;20081;-74
2023/06/04 10:03:28;;;;;;;0.00;0.00;;;26.30;99.90;;;;;;5141248;27;20038;-74
2023/06/04 10:05:55;;;;;;;4.55;0.50;;;26.40;99.90;;;;;;5116439;27;20043;-74
2023/06/04 10:08:25;;;;;;;0.10;0.10;;;25.90;99.90;;;;;;5123429;27;20078;-74
2023/06/04 10:10:54;;;;;;;0.10;0.10;;;25.50;99.90;;;;;;5106069;27;20047;-74
2023/06/04 10:13:22;;;;;;;0.30;0.20;;;24.90;99.90;;;;;;5123984;27;20055;-74
2023/06/04 10:15:49;;;;;;;0.40;0.32;;;24.80;99.90;;;;;;5143852;27;20050;-74
2023/06/04 10:18:15;;;;;;;11.30;1.27;;;24.80;99.90;;;;;;5144844;27;20511;-74
2023/06/04 10:20:41;;;;;;;0.10;0.10;;;24.80;99.90;;;;;;5141743;27;20039;-74
2023/06/04 10:23:08;;;;;;;7.38;1.17;;;24.20;96.80;;;;;;5123661;27;20088;-74
2023/06/04 10:25:37;;;;;;;4.07;1.33;;;24.00;93.80;;;;;;5123587;27;20477;-74
2023/06/04 10:28:03;;;;;;;0.10;0.10;;;24.20;98.40;;;;;;5123350;27;20157;-74
2023/06/04 10:30:30;;;;;;;0.22;0.10;;;24.20;97.10;;;;;;5139770;27;20065;-74
2023/06/04 10:32:57;;;;;;;0.00;0.00;;;24.50;99.90;;;;;;5144534;27;20042;-74
2023/06/04 10:35:33;;;;;;;0.40;0.32;;;24.60;99.90;;;;;;5125719;27;20051;-74
2023/06/04 10:38:13;;;;;;;0.38;0.30;;;24.20;97.70;;;;;;5123356;27;20039;-74
2023/06/04 10:40:39;;;;;;;1.42;0.22;;;24.20;98.70;;;;;;5123146;27;20082;-74
2023/06/04 10:43:12;;;;;;;0.15;0.10;;;24.50;99.90;;;;;;5123845;27;20039;-74
2023/06/04 10:45:39;;;;;;;0.00;0.00;;;24.40;99.90;;;;;;5123272;27;20039;-74
2023/06/04 10:48:14;;;;;;;2.22;0.38;;;24.40;99.90;;;;;;5123480;27;20046;-74
2023/06/04 10:50:53;;;;;;;0.00;0.00;;;24.50;99.80;;;;;;5123255;27;20043;-74
2023/06/04 10:53:19;;;;;;;1.08;0.60;;;24.60;99.90;;;;;;5123298;27;20050;-74
2023/06/04 10:55:47;;;;;;;0.15;0.15;;;24.50;99.90;;;;;;5123305;27;20522;-74
2023/06/04 10:58:12;;;;;;;1.30;0.47;;;24.70;99.90;;;;;;5106581;27;20588;-74
2023/06/04 11:00:40;;;;;;;0.05;0.05;;;24.80;99.90;;;;;;5131731;27;20054;-74
2023/06/04 11:03:07;;;;;;;1.77;0.75;;;24.80;99.90;;;;;;5123210;27;20148;-74
2023/06/04 11:05:42;;;;;;;0.45;0.25;;;24.50;99.00;;;;;;5123094;27;20039;-74
2023/06/04 11:08:09;;;;;;;1.48;0.50;;;24.80;99.90;;;;;;5123248;27;20126;-74
2023/06/04 11:10:37;;;;;;;0.00;0.00;;;24.80;99.90;;;;;;5123182;27;20885;-74
2023/06/04 11:13:03;;;;;;;0.20;0.17;;;25.20;99.90;;;;;;5104112;28;20139;-74
2023/06/04 11:15:43;;;;;;;0.38;0.30;;;25.30;99.90;;;;;;5123388;28;20060;-74
2023/06/04 11:18:17;;;;;;;4.38;1.25;;;24.90;99.90;;;;;;5125516;27;20493;-74
2023/06/04 11:20:57;;;;;;;0.25;0.10;;;25.10;99.90;;;;;;5130024;27;20497;-74
2023/06/04 11:23:23;;;;;;;13.98;1.25;;;25.30;99.90;;;;;;5129538;27;20054;-74
2023/06/04 11:25:52;;;;;;;0.77;0.45;;;25.20;99.90;;;;;;5129680;27;20043;-74
2023/06/04 11:28:18;;;;;;;1.85;0.40;;;25.20;99.90;;;;;;5129793;27;20047;-74
2023/06/04 11:31:08;;;;;;;0.20;0.20;;;25.00;99.90;;;;;;5134061;27;20052;-74
2023/06/04 11:33:46;;;;;;;0.55;0.20;;;25.00;99.90;;;;;;5150461;27;20056;-74
2023/06/04 11:36:26;;;;;;;0.28;0.20;;;25.80;99.90;;;;;;5109252;28;20043;-74
2023/06/04 11:39:00;;;;;;;0.00;0.00;;;26.20;99.90;;;;;;5108740;28;20088;-74
2023/06/04 11:41:34;;;;;;;0.00;0.00;;;26.40;99.90;;;;;;5109037;28;20047;-75
2023/06/04 11:44:05;;;;;;;0.85;0.38;;;26.80;99.90;;;;;;5108948;28;20063;-74
2023/06/04 11:46:34;;;;;;;0.30;0.28;;;26.80;99.90;;;;;;5128591;27;20203;-74
2023/06/04 11:49:02;;;;;;;0.35;0.22;;;26.70;99.90;;;;;;5129548;27;20050;-74
2023/06/04 11:51:28;;;;;;;0.43;0.17;;;26.70;99.90;;;;;;5129417;27;20042;-74
2023/06/04 11:53:55;;;;;;;0.20;0.20;;;27.00;99.90;;;;;;5111090;27;20054;-74
2023/06/04 11:56:21;;;;;;;0.15;0.15;;;27.70;99.90;;;;;;5129131;27;20512;-74
2023/06/04 11:58:47;;;;;;;0.00;0.00;;;27.80;99.90;;;;;;5129526;27;20047;-74
2023/06/04 12:01:13;;;;;;;0.73;0.35;;;28.50;99.90;;;;;;5129530;27;20083;-74
2023/06/04 12:03:40;;;;;;;0.32;0.30;;;28.20;99.90;;;;;;5129432;27;20035;-74
2023/06/04 12:06:24;;;;;;;0.22;0.10;;;28.60;99.90;;;;;;5129361;27;20051;-74
2023/06/04 12:08:52;;;;;;;0.55;0.30;;;29.00;99.90;;;;;;5142288;27;20145;-74
2023/06/04 12:11:34;;;;;;;0.00;0.00;;;28.90;99.90;;;;;;5150338;27;20049;-74
2023/06/04 12:14:17;;;;;;;0.03;0.03;;;29.70;99.90;;;;;;5149842;27;20393;-74
2023/06/04 12:16:43;;;;;;;1.02;0.68;;;28.70;99.90;;;;;;5149936;27;20049;-74
2023/06/04 12:19:10;;;;;;;0.55;0.45;;;27.90;99.90;;;;;;5133315;27;20038;-74
2023/06/04 12:21:37;;;;;;;0.20;0.20;;;28.40;99.90;;;;;;5146679;27;20039;-74
2023/06/04 12:24:07;;;;;;;0.63;0.15;;;28.60;99.90;;;;;;5150045;27;20057;-74
2023/06/04 12:26:37;;;;;;;0.00;0.00;;;29.30;99.90;;;;;;5149867;27;20043;-75
2023/06/04 12:29:11;;;;;;;0.57;0.30;;;29.90;99.90;;;;;;5149060;27;20392;-73
2023/06/04 12:31:38;;;;;;;0.65;0.43;;;29.70;99.90;;;;;;5146452;27;20042;-73
2023/06/04 12:34:04;;;;;;;1.08;0.20;;;29.50;99.90;;;;;;5146377;27;20091;-74
2023/06/04 12:36:29;;;;;;;0.95;0.47;;;29.70;99.90;;;;;;5144946;27;20498;-74
2023/06/04 12:39:00;;;;;;;0.03;0.03;;;29.70;99.90;;;;;;5125968;27;20092;-74
2023/06/04 12:41:29;;;;;;;0.20;0.10;;;30.10;99.90;;;;;;5122274;27;20073;-74
2023/06/04 12:43:55;;;;;;;14.85;5.18;;;29.70;99.90;;;;;;5146996;27;20097;-74
2023/06/04 12:46:22;;;;;;;1.35;1.13;;;29.10;99.90;;;;;;5146783;27;20505;-74
2023/06/04 12:48:50;;;;;;;6.03;0.45;;;28.70;99.90;;;;;;5135118;27;20047;-75
2023/06/04 12:51:15;;;;;;;0.00;0.00;;;29.00;99.90;;;;;;5125563;27;20047;-75